Edmonton Namao Alta., Canada
Current Conditions -  °F | °C
As of 4:00 AM on Friday 24 Oct 2014 (Local Time) from CYXD Reporting Station
Clear Clear  
Wind Chill: 34°   Ceiling: Unl
Heat Index: 41°   Visibility: 9mi
Dew Point: 32°   Wind: 13mph
Humidity: 70%   Direction: 260°W
Pressure: 29.7"   Gusts: 20mph
Location:  53.61°N, 113.46°W
Report Text: CYXD 241000Z AUTO 26011G17KT 9SM CLR 05/M00 A2970 RMK SLP068
Loading
Personal Weather Stations






























Interactive Weather Map New forecast layout! Learn more

10-Day Weather Forecast

Advertisements
Track Severe Weather on mobile